Time;durP1;ratioP1;P1;durP2;ratioP2;P2;SDS_P1;SDS_P2;PMS_P1;PMS_P2;Temp;Humidity;BMP_temperature;BMP_pressure;BME280_temperature;BME280_humidity;BME280_pressure;Samples;Min_cycle;Max_cycle;Signal;HPM_P1;HPM_P2
2022/07/14 00:02:02;;;;;;;2.72;0.93;;;31.60;33.50;;;;;;5072997;28;20135;-64
2022/07/14 00:04:29;;;;;;;2.05;1.70;;;31.60;33.80;;;;;;5078588;28;20039;-64
2022/07/14 00:06:58;;;;;;;2.33;1.20;;;31.60;34.10;;;;;;5074396;28;20771;-65
2022/07/14 00:09:25;;;;;;;4.22;1.33;;;31.60;34.50;;;;;;5071853;28;20858;-65
2022/07/14 00:11:52;;;;;;;4.90;1.50;;;31.50;34.60;;;;;;5059181;28;20409;-64
2022/07/14 00:14:19;;;;;;;4.70;2.40;;;31.50;34.70;;;;;;5061792;28;20047;-65
2022/07/14 00:16:46;;;;;;;4.63;3.03;;;31.40;34.80;;;;;;5087385;28;20063;-65
2022/07/14 00:19:13;;;;;;;9.73;6.57;;;31.40;34.90;;;;;;5079278;28;20063;-64
2022/07/14 00:21:40;;;;;;;13.18;8.07;;;31.40;34.90;;;;;;5077942;28;20135;-64
2022/07/14 00:24:11;;;;;;;11.70;7.63;;;31.30;34.80;;;;;;5075561;28;20492;-63
2022/07/14 00:26:39;;;;;;;8.32;7.03;;;31.40;34.80;;;;;;5083167;28;20036;-63
2022/07/14 00:29:07;;;;;;;15.73;8.68;;;31.30;34.90;;;;;;5088656;28;20125;-63
2022/07/14 00:31:35;;;;;;;11.48;7.55;;;31.30;34.80;;;;;;5074145;28;20052;-64
2022/07/14 00:34:02;;;;;;;14.00;7.75;;;31.20;34.80;;;;;;5077437;28;20052;-64
2022/07/14 00:36:30;;;;;;;7.38;6.20;;;31.20;34.80;;;;;;5072993;28;20044;-65
2022/07/14 00:38:57;;;;;;;14.65;5.78;;;31.20;34.90;;;;;;5068852;28;20086;-65
2022/07/14 00:41:26;;;;;;;10.43;6.47;;;31.10;35.00;;;;;;5074954;28;20059;-65
2022/07/14 00:43:53;;;;;;;11.32;7.50;;;31.10;35.20;;;;;;5073311;28;20070;-64
2022/07/14 00:46:20;;;;;;;9.77;6.93;;;31.10;35.30;;;;;;5080707;28;20087;-65
2022/07/14 00:48:47;;;;;;;9.82;8.07;;;31.00;35.40;;;;;;5073353;28;20047;-65
2022/07/14 00:51:15;;;;;;;8.95;5.40;;;31.00;35.40;;;;;;5074200;28;20052;-64
2022/07/14 00:53:42;;;;;;;16.58;8.20;;;30.90;35.30;;;;;;5071298;28;20742;-64
2022/07/14 00:56:09;;;;;;;9.05;5.80;;;30.90;35.50;;;;;;5074520;28;20048;-64
2022/07/14 00:58:38;;;;;;;7.43;5.13;;;30.90;35.50;;;;;;5075182;28;20045;-64
2022/07/14 01:01:05;;;;;;;6.95;4.15;;;30.90;35.60;;;;;;5072825;28;20155;-66
2022/07/14 01:03:33;;;;;;;5.60;5.10;;;30.90;35.50;;;;;;5079134;28;20598;-67
2022/07/14 01:06:00;;;;;;;7.38;3.50;;;30.90;35.60;;;;;;5055243;28;20055;-67
2022/07/14 01:08:27;;;;;;;7.15;3.28;;;30.80;35.50;;;;;;5073523;28;20051;-66
2022/07/14 01:10:54;;;;;;;5.28;3.65;;;30.80;35.60;;;;;;5076367;28;20087;-65
2022/07/14 01:13:23;;;;;;;3.88;3.03;;;30.80;35.70;;;;;;5072374;28;20041;-64
2022/07/14 01:15:51;;;;;;;10.75;2.55;;;30.80;35.70;;;;;;5077037;28;20046;-64
2022/07/14 01:18:18;;;;;;;3.13;2.92;;;30.70;35.70;;;;;;5085002;28;20039;-65
2022/07/14 01:20:46;;;;;;;3.50;1.35;;;30.70;35.70;;;;;;5056865;28;20071;-63
2022/07/14 01:23:14;;;;;;;4.13;2.53;;;30.70;35.60;;;;;;5061570;28;20382;-63
2022/07/14 01:25:41;;;;;;;1.38;1.33;;;30.70;35.60;;;;;;5079413;28;20071;-64
2022/07/14 01:28:08;;;;;;;9.02;0.98;;;30.70;35.50;;;;;;5081733;28;20043;-64
2022/07/14 01:30:36;;;;;;;1.73;0.80;;;30.60;35.40;;;;;;5073074;28;20048;-65
2022/07/14 01:33:03;;;;;;;6.25;2.65;;;30.60;35.40;;;;;;5078577;28;20040;-65
2022/07/14 01:35:30;;;;;;;10.43;1.80;;;30.60;35.40;;;;;;5056671;28;20040;-62
2022/07/14 01:37:58;;;;;;;2.05;1.10;;;30.50;35.30;;;;;;5081497;28;20051;-63
2022/07/14 01:40:26;;;;;;;2.30;0.90;;;30.50;35.30;;;;;;5077076;28;20041;-65
2022/07/14 01:42:54;;;;;;;5.13;1.08;;;30.50;35.30;;;;;;5080786;28;20446;-64
2022/07/14 01:45:21;;;;;;;1.85;0.60;;;30.50;35.30;;;;;;5074456;28;20047;-64
2022/07/14 01:47:48;;;;;;;7.50;1.45;;;30.50;35.50;;;;;;5058608;28;20574;-64
2022/07/14 01:50:16;;;;;;;2.13;1.35;;;30.50;35.40;;;;;;5066754;28;20128;-64
2022/07/14 01:52:44;;;;;;;4.78;0.77;;;30.50;35.30;;;;;;5083015;28;20044;-64
2022/07/14 01:55:11;;;;;;;1.33;0.57;;;30.40;35.30;;;;;;5081278;28;20044;-64
2022/07/14 01:57:40;;;;;;;7.30;0.85;;;30.40;35.30;;;;;;5075268;28;20715;-64
2022/07/14 02:00:09;;;;;;;3.15;0.68;;;30.40;35.20;;;;;;5060858;28;20109;-65
2022/07/14 02:02:44;;;;;;;2.53;1.25;;;30.40;35.30;;;;;;5077259;28;20135;-62
2022/07/14 02:05:12;;;;;;;1.30;1.02;;;30.40;36.00;;;;;;5063158;28;20115;-62
2022/07/14 02:07:39;;;;;;;2.95;0.40;;;30.30;35.40;;;;;;5085236;28;20048;-63
2022/07/14 02:13:01;;;;;;;0.60;0.40;;;30.30;35.50;;;;;;5079993;28;20068;-63
2022/07/14 02:15:28;;;;;;;1.15;0.30;;;30.20;35.50;;;;;;5065845;28;20055;-63
2022/07/14 02:17:55;;;;;;;1.02;0.30;;;30.20;35.40;;;;;;5087388;28;20074;-63
2022/07/14 02:20:23;;;;;;;12.00;3.00;;;30.20;35.50;;;;;;5089647;28;20041;-63
2022/07/14 02:22:50;;;;;;;3.67;0.50;;;30.10;35.50;;;;;;5084128;28;20039;-59
2022/07/14 02:25:17;;;;;;;3.78;0.30;;;30.10;35.50;;;;;;5080055;28;20037;-62
2022/07/14 02:27:44;;;;;;;1.70;0.85;;;30.10;35.60;;;;;;5076497;28;20046;-62
2022/07/14 02:30:13;;;;;;;0.30;0.30;;;30.10;35.60;;;;;;5071117;28;20040;-62
2022/07/14 02:32:40;;;;;;;1.00;0.20;;;30.00;35.70;;;;;;5061611;28;20559;-64
2022/07/14 02:35:07;;;;;;;0.65;0.45;;;30.00;35.80;;;;;;5073086;28;20036;-64
2022/07/14 02:37:36;;;;;;;1.15;0.20;;;30.00;35.90;;;;;;5067714;28;20048;-63
2022/07/14 02:40:06;;;;;;;1.65;0.10;;;30.00;36.10;;;;;;5078257;28;20075;-63
2022/07/14 02:42:33;;;;;;;2.45;0.30;;;29.90;36.00;;;;;;5079942;28;20131;-64
2022/07/14 02:45:01;;;;;;;0.20;0.20;;;29.90;36.10;;;;;;5073814;28;20145;-63
2022/07/14 02:47:29;;;;;;;7.32;0.22;;;29.90;36.30;;;;;;5076369;28;20424;-63
2022/07/14 02:49:56;;;;;;;2.63;0.22;;;29.90;36.40;;;;;;5082043;28;20055;-63
2022/07/14 02:52:23;;;;;;;0.38;0.20;;;29.90;36.40;;;;;;5079380;28;20048;-64
2022/07/14 02:54:53;;;;;;;3.03;0.20;;;29.90;36.50;;;;;;5083194;28;20036;-66
2022/07/14 02:57:23;;;;;;;0.80;0.13;;;29.80;36.50;;;;;;5076813;28;20119;-66
2022/07/14 02:59:52;;;;;;;1.65;0.10;;;29.80;36.60;;;;;;5064635;28;20048;-64
2022/07/14 03:02:19;;;;;;;0.50;0.47;;;29.80;36.70;;;;;;5084954;28;20102;-64
2022/07/14 03:04:48;;;;;;;1.42;0.50;;;29.70;36.80;;;;;;5080532;28;20163;-64
2022/07/14 03:07:15;;;;;;;2.92;0.30;;;29.70;36.90;;;;;;5081955;28;20131;-62
2022/07/14 03:09:42;;;;;;;1.65;0.68;;;29.70;37.00;;;;;;5081274;28;20482;-62
2022/07/14 03:12:09;;;;;;;3.60;0.57;;;29.70;37.20;;;;;;5074962;28;20036;-62
2022/07/14 03:14:41;;;;;;;3.10;0.40;;;29.70;37.40;;;;;;5059711;28;20044;-62
2022/07/14 03:17:09;;;;;;;1.33;0.20;;;29.70;37.50;;;;;;5086319;28;20036;-63
2022/07/14 03:19:36;;;;;;;5.20;0.20;;;29.70;37.60;;;;;;5080813;28;20119;-63
2022/07/14 03:22:04;;;;;;;1.92;0.20;;;29.70;37.70;;;;;;5083558;28;20501;-64
2022/07/14 03:24:33;;;;;;;0.30;0.20;;;29.60;37.70;;;;;;5079171;28;20028;-63
2022/07/14 03:27:02;;;;;;;2.58;0.20;;;29.60;37.80;;;;;;5077724;28;20452;-63
2022/07/14 03:29:30;;;;;;;1.42;0.38;;;29.60;37.80;;;;;;5057406;28;20033;-63
2022/07/14 03:31:57;;;;;;;2.50;0.17;;;29.60;38.00;;;;;;5074777;28;20041;-63
2022/07/14 03:34:24;;;;;;;1.13;0.25;;;29.60;38.10;;;;;;5083980;28;20142;-63
2022/07/14 03:36:53;;;;;;;0.93;0.20;;;29.60;38.10;;;;;;5079498;28;20040;-63
2022/07/14 03:39:27;;;;;;;0.80;0.20;;;29.60;38.10;;;;;;5072047;28;20048;-63
2022/07/14 03:41:54;;;;;;;1.02;0.20;;;29.60;38.20;;;;;;5076048;28;20093;-63
2022/07/14 03:44:22;;;;;;;0.30;0.30;;;29.60;38.20;;;;;;5054938;28;20032;-63
2022/07/14 03:46:49;;;;;;;0.20;0.20;;;29.70;38.20;;;;;;5087751;28;20036;-64
2022/07/14 03:49:19;;;;;;;1.38;0.50;;;29.70;38.30;;;;;;5079446;28;20157;-62
2022/07/14 03:51:49;;;;;;;3.65;0.45;;;29.70;38.30;;;;;;5081317;28;20505;-63
2022/07/14 03:54:21;;;;;;;0.95;0.85;;;29.60;38.20;;;;;;5074344;28;20143;-65
2022/07/14 03:56:49;;;;;;;2.42;0.20;;;29.70;38.40;;;;;;5057811;28;20043;-65
2022/07/14 03:59:18;;;;;;;2.83;0.30;;;29.70;38.40;;;;;;5078216;28;20047;-66
2022/07/14 04:01:47;;;;;;;2.03;0.20;;;29.70;38.90;;;;;;5078621;28;20086;-65
2022/07/14 04:04:14;;;;;;;4.18;0.20;;;29.70;38.40;;;;;;5061450;28;20045;-64
2022/07/14 04:06:41;;;;;;;6.10;0.20;;;29.60;38.40;;;;;;5072843;28;20135;-63
2022/07/14 04:09:08;;;;;;;0.20;0.15;;;29.60;38.50;;;;;;5069671;28;20043;-63
2022/07/14 04:11:40;;;;;;;4.60;0.50;;;29.60;38.60;;;;;;5076311;28;20041;-63
2022/07/14 04:14:09;;;;;;;0.50;0.30;;;29.50;38.60;;;;;;5072812;28;20386;-65
2022/07/14 04:16:39;;;;;;;1.80;0.20;;;29.50;38.70;;;;;;5094248;28;20036;-64
2022/07/14 04:19:06;;;;;;;3.42;0.30;;;29.50;38.90;;;;;;5067647;28;20040;-63
2022/07/14 04:21:35;;;;;;;2.50;0.28;;;29.50;39.00;;;;;;5072943;28;20032;-63
2022/07/14 04:24:02;;;;;;;1.70;0.30;;;29.40;39.00;;;;;;5070809;28;20107;-62
2022/07/14 04:26:29;;;;;;;1.05;0.20;;;29.40;39.20;;;;;;5081165;28;20047;-65
2022/07/14 04:28:58;;;;;;;2.72;1.30;;;29.40;39.40;;;;;;5070964;28;20048;-64
2022/07/14 04:31:29;;;;;;;2.65;0.20;;;29.30;39.40;;;;;;5063758;28;20036;-64
2022/07/14 04:33:56;;;;;;;2.42;0.30;;;29.30;39.50;;;;;;5078391;28;20149;-51
2022/07/14 04:36:24;;;;;;;0.60;0.28;;;29.30;39.90;;;;;;5072922;28;20467;-49
2022/07/14 04:38:52;;;;;;;1.85;0.20;;;29.30;39.70;;;;;;5066053;28;20123;-51
2022/07/14 04:41:19;;;;;;;1.08;0.15;;;29.30;39.70;;;;;;5062343;28;20119;-52
2022/07/14 04:43:46;;;;;;;7.32;0.65;;;29.20;39.80;;;;;;5077104;28;20149;-53
2022/07/14 04:46:14;;;;;;;3.40;0.20;;;29.20;39.80;;;;;;5059518;28;20044;-50
2022/07/14 04:54:26;;;;;;;7.38;0.32;;;29.20;40.20;;;;;;5073642;28;20381;-54
2022/07/14 04:57:14;;;;;;;2.40;0.20;;;29.10;40.30;;;;;;5076304;28;20048;-51
2022/07/14 04:59:45;;;;;;;3.50;0.60;;;29.10;40.40;;;;;;5063752;28;20051;-53
2022/07/14 05:02:14;;;;;;;1.20;0.45;;;29.10;40.50;;;;;;5060285;28;20067;-51
2022/07/14 05:04:43;;;;;;;3.78;0.22;;;29.00;40.50;;;;;;5087273;28;20039;-60
2022/07/14 05:07:10;;;;;;;1.85;0.10;;;29.00;41.30;;;;;;5058947;28;20858;-59
2022/07/14 05:09:42;;;;;;;0.93;0.15;;;29.10;41.70;;;;;;5086239;28;20091;-59
2022/07/14 05:12:13;;;;;;;3.85;0.73;;;29.30;42.00;;;;;;5075770;28;20036;-59
2022/07/14 05:14:41;;;;;;;3.40;0.80;;;29.40;42.10;;;;;;5079064;28;20040;-59
2022/07/14 05:17:08;;;;;;;1.35;0.10;;;29.60;42.20;;;;;;5097800;28;20082;-60
2022/07/14 05:19:35;;;;;;;1.67;0.20;;;29.70;42.20;;;;;;5083404;28;20033;-60
2022/07/14 05:22:04;;;;;;;2.30;0.30;;;29.80;42.20;;;;;;5081974;28;20044;-60
2022/07/14 05:24:32;;;;;;;1.95;0.50;;;29.90;42.20;;;;;;5082959;28;20040;-59
2022/07/14 05:26:59;;;;;;;1.48;0.30;;;30.10;42.20;;;;;;5067311;28;20044;-60
2022/07/14 05:29:27;;;;;;;1.88;0.30;;;30.10;42.20;;;;;;5072971;28;20038;-61
2022/07/14 05:31:54;;;;;;;4.55;0.30;;;30.30;42.70;;;;;;5075644;28;20036;-53
2022/07/14 05:34:21;;;;;;;42.42;1.38;;;30.30;42.80;;;;;;5087289;28;20028;-66
2022/07/14 05:36:49;;;;;;;10.50;1.52;;;30.40;43.80;;;;;;5067766;28;20052;-66
2022/07/14 05:39:17;;;;;;;10.90;0.75;;;30.50;43.60;;;;;;5077910;28;20036;-66
2022/07/14 05:41:44;;;;;;;3.60;0.20;;;30.60;43.60;;;;;;5063251;28;20133;-66
2022/07/14 05:44:11;;;;;;;0.82;0.13;;;30.60;43.40;;;;;;5059187;28;20123;-66
2022/07/14 05:46:38;;;;;;;4.78;0.63;;;30.60;43.30;;;;;;5079412;28;20044;-66
2022/07/14 05:49:05;;;;;;;1.42;0.10;;;30.70;43.20;;;;;;5081400;28;20117;-66
2022/07/14 05:51:33;;;;;;;1.65;0.10;;;30.80;43.00;;;;;;5080520;28;20055;-67
2022/07/14 05:54:00;;;;;;;1.98;0.40;;;30.80;42.80;;;;;;5075393;28;20139;-66
2022/07/14 05:56:29;;;;;;;3.00;0.30;;;30.90;42.70;;;;;;5075583;28;20512;-65
2022/07/14 05:58:56;;;;;;;4.60;0.30;;;30.90;42.50;;;;;;5081510;28;20052;-66
2022/07/14 06:01:23;;;;;;;0.38;0.10;;;31.00;42.40;;;;;;5080295;28;20528;-65
2022/07/14 06:03:56;;;;;;;1.10;0.10;;;31.00;42.10;;;;;;5082083;28;20048;-65
2022/07/14 06:06:24;;;;;;;3.45;0.10;;;31.10;42.00;;;;;;5074516;28;20036;-65
2022/07/14 06:08:53;;;;;;;1.88;0.50;;;31.10;41.80;;;;;;5063681;28;20419;-65
2022/07/14 06:11:21;;;;;;;0.80;0.63;;;31.20;41.70;;;;;;5056610;28;20056;-66
2022/07/14 06:13:49;;;;;;;1.17;0.68;;;31.20;41.50;;;;;;5083209;28;20044;-65
2022/07/14 06:16:18;;;;;;;1.10;0.10;;;31.30;41.40;;;;;;5085562;28;20064;-66
2022/07/14 06:18:45;;;;;;;1.80;0.10;;;31.30;41.30;;;;;;5074601;28;20048;-65
2022/07/14 06:21:12;;;;;;;0.63;0.10;;;31.40;41.30;;;;;;5076471;28;20043;-66
2022/07/14 06:23:39;;;;;;;0.80;0.30;;;31.40;41.10;;;;;;5058925;28;20432;-67
2022/07/14 06:26:10;;;;;;;1.98;0.10;;;31.40;41.00;;;;;;5064536;28;20070;-66
2022/07/14 06:28:39;;;;;;;2.80;0.17;;;31.40;40.80;;;;;;5077824;28;20052;-65
2022/07/14 06:31:07;;;;;;;0.68;0.20;;;31.50;40.80;;;;;;5084117;28;20121;-66
2022/07/14 06:33:34;;;;;;;0.15;0.10;;;31.50;40.70;;;;;;5079528;28;20044;-64
2022/07/14 06:36:15;;;;;;;0.65;0.28;;;31.50;40.60;;;;;;5082824;28;20136;-65
2022/07/14 06:38:42;;;;;;;1.05;0.10;;;31.50;40.60;;;;;;5057497;28;20052;-65
2022/07/14 06:41:10;;;;;;;0.98;0.10;;;31.60;40.50;;;;;;5080732;28;20037;-66
2022/07/14 06:43:42;;;;;;;0.20;0.10;;;31.60;40.40;;;;;;5079598;28;20045;-66
2022/07/14 06:46:15;;;;;;;3.35;0.40;;;31.60;40.30;;;;;;5076100;28;20693;-67
2022/07/14 06:48:42;;;;;;;0.30;0.20;;;31.70;40.40;;;;;;5077272;28;20512;-67
2022/07/14 06:51:10;;;;;;;0.45;0.10;;;31.70;40.30;;;;;;5076148;28;20031;-66
2022/07/14 06:53:37;;;;;;;2.70;0.20;;;31.70;40.20;;;;;;5067706;28;20041;-66
2022/07/14 06:56:05;;;;;;;0.10;0.10;;;31.70;40.20;;;;;;5072668;28;20774;-66
2022/07/14 06:58:32;;;;;;;1.42;0.10;;;31.80;40.10;;;;;;5073948;28;20082;-66
2022/07/14 07:01:00;;;;;;;2.97;0.10;;;31.80;40.10;;;;;;5076499;28;20045;-66
2022/07/14 07:03:28;;;;;;;0.40;0.10;;;31.90;40.10;;;;;;5087550;28;20531;-66
2022/07/14 07:08:40;;;;;;;1.23;0.17;;;31.90;39.90;;;;;;5072467;28;20051;-66
2022/07/14 07:11:07;;;;;;;1.05;0.10;;;31.90;39.90;;;;;;5073061;28;20040;-66
2022/07/14 07:13:34;;;;;;;0.55;0.45;;;31.90;39.80;;;;;;5080106;28;20036;-65
2022/07/14 07:16:05;;;;;;;1.08;0.10;;;32.00;39.80;;;;;;5081249;28;20137;-65
2022/07/14 07:18:34;;;;;;;0.10;0.10;;;32.00;39.70;;;;;;5079301;28;20032;-66
2022/07/14 07:21:01;;;;;;;1.42;0.15;;;32.00;39.60;;;;;;5086868;28;20036;-66
2022/07/14 07:23:29;;;;;;;1.13;0.40;;;32.00;39.60;;;;;;5080264;28;20037;-67
2022/07/14 07:25:56;;;;;;;1.23;0.10;;;32.00;39.60;;;;;;5083803;28;20459;-67
2022/07/14 07:28:24;;;;;;;0.30;0.10;;;32.10;39.60;;;;;;5076434;28;20048;-67
2022/07/14 07:30:51;;;;;;;0.28;0.20;;;32.20;39.60;;;;;;5077881;28;20050;-64
2022/07/14 07:33:18;;;;;;;0.73;0.10;;;32.20;39.50;;;;;;5075339;28;20054;-66
2022/07/14 07:35:46;;;;;;;0.20;0.10;;;32.20;39.40;;;;;;5085780;28;20044;-66
2022/07/14 07:38:13;;;;;;;0.15;0.10;;;32.20;39.40;;;;;;5069106;28;20143;-66
2022/07/14 07:40:40;;;;;;;1.23;0.10;;;32.20;39.30;;;;;;5080372;28;20036;-66
2022/07/14 07:43:07;;;;;;;0.43;0.10;;;32.20;39.30;;;;;;5075539;28;20072;-66
2022/07/14 07:45:34;;;;;;;0.35;0.10;;;32.30;39.30;;;;;;5078935;28;20491;-66
2022/07/14 07:48:03;;;;;;;0.95;0.10;;;32.30;39.20;;;;;;5086520;28;20101;-67
2022/07/14 07:50:30;;;;;;;0.35;0.10;;;32.30;39.20;;;;;;5078582;28;20064;-66
2022/07/14 07:52:58;;;;;;;0.50;0.10;;;32.30;39.10;;;;;;5083836;28;20044;-66
2022/07/14 07:55:25;;;;;;;0.30;0.30;;;32.40;39.10;;;;;;5077609;28;20036;-67
2022/07/14 07:57:53;;;;;;;0.70;0.10;;;32.30;39.00;;;;;;5083245;28;20076;-66
2022/07/14 08:00:20;;;;;;;0.20;0.10;;;32.40;39.00;;;;;;5072688;28;20041;-66
2022/07/14 08:02:48;;;;;;;1.55;0.10;;;32.30;38.90;;;;;;5072285;28;20072;-67
2022/07/14 08:05:16;;;;;;;0.17;0.10;;;32.40;39.00;;;;;;5087399;28;20047;-66
2022/07/14 08:07:44;;;;;;;0.68;0.10;;;32.40;38.90;;;;;;5087732;28;20036;-66
2022/07/14 08:10:12;;;;;;;0.28;0.10;;;32.40;38.90;;;;;;5087797;28;20040;-66
2022/07/14 08:12:39;;;;;;;1.63;0.13;;;32.40;38.80;;;;;;5087975;28;20058;-67
2022/07/14 08:15:07;;;;;;;0.20;0.10;;;32.40;38.80;;;;;;5096513;28;20126;-67
2022/07/14 08:17:34;;;;;;;0.10;0.10;;;32.40;38.80;;;;;;5077073;28;20115;-65
2022/07/14 08:20:01;;;;;;;0.20;0.10;;;32.50;39.40;;;;;;5070688;28;20052;-66
2022/07/14 08:22:29;;;;;;;0.65;0.13;;;32.50;38.80;;;;;;5084226;28;20028;-66
2022/07/14 08:24:57;;;;;;;0.20;0.10;;;32.50;38.70;;;;;;5093170;28;20044;-66
2022/07/14 08:27:27;;;;;;;0.15;0.15;;;32.50;38.70;;;;;;5084102;28;20115;-66
2022/07/14 08:29:54;;;;;;;1.60;0.73;;;32.50;38.60;;;;;;5086400;28;20047;-66
2022/07/14 08:32:38;;;;;;;0.10;0.10;;;32.50;38.60;;;;;;5088225;28;20051;-65
2022/07/14 08:35:07;;;;;;;0.35;0.20;;;32.50;38.50;;;;;;5092313;28;20123;-66
2022/07/14 08:37:35;;;;;;;0.32;0.10;;;32.50;38.90;;;;;;5087290;28;20044;-66
2022/07/14 08:40:02;;;;;;;0.10;0.10;;;32.60;38.60;;;;;;5097638;28;20083;-65
2022/07/14 08:42:32;;;;;;;1.40;0.10;;;32.50;38.50;;;;;;5081941;28;20126;-66
2022/07/14 08:44:59;;;;;;;0.43;0.10;;;32.60;38.50;;;;;;5082938;28;20038;-66
2022/07/14 08:47:27;;;;;;;1.10;0.10;;;32.50;38.40;;;;;;5092289;28;20049;-66
2022/07/14 08:49:54;;;;;;;0.10;0.10;;;32.60;38.40;;;;;;5084336;28;20535;-65
2022/07/14 08:52:23;;;;;;;0.10;0.10;;;32.60;38.40;;;;;;5084800;28;20123;-66
2022/07/14 08:54:50;;;;;;;0.10;0.10;;;32.60;38.40;;;;;;5086306;28;20048;-66
2022/07/14 08:57:18;;;;;;;1.30;0.10;;;32.60;39.00;;;;;;5083003;28;20123;-66
2022/07/14 08:59:46;;;;;;;1.10;0.98;;;32.60;38.30;;;;;;5081561;28;20044;-66
2022/07/14 09:02:13;;;;;;;0.10;0.10;;;32.60;38.30;;;;;;5077093;28;20037;-66
2022/07/14 09:04:44;;;;;;;0.25;0.20;;;32.70;38.30;;;;;;5084290;28;20044;-66
2022/07/14 09:07:12;;;;;;;0.60;0.10;;;32.60;38.20;;;;;;5077987;28;20405;-66
2022/07/14 09:09:39;;;;;;;0.50;0.10;;;32.60;38.20;;;;;;5081344;28;20075;-67
2022/07/14 09:12:08;;;;;;;2.63;0.10;;;32.70;38.30;;;;;;5081315;28;20134;-66
2022/07/14 09:17:22;;;;;;;0.10;0.10;;;32.70;38.20;;;;;;5078582;28;20048;-66
2022/07/14 09:20:05;;;;;;;0.10;0.10;;;32.70;38.80;;;;;;5084076;28;20075;-67
2022/07/14 09:22:33;;;;;;;0.40;0.10;;;32.70;38.20;;;;;;5077376;28;20451;-65
2022/07/14 09:25:02;;;;;;;2.20;0.17;;;32.70;38.20;;;;;;5084539;28;20044;-67
2022/07/14 09:27:29;;;;;;;1.38;0.20;;;32.70;38.10;;;;;;5081264;28;20094;-66
2022/07/14 09:29:57;;;;;;;0.47;0.10;;;32.70;38.10;;;;;;5078095;28;20044;-65
2022/07/14 09:32:43;;;;;;;0.22;0.22;;;32.70;38.10;;;;;;5078224;28;20055;-66
2022/07/14 09:35:11;;;;;;;0.55;0.20;;;32.70;38.10;;;;;;5087193;28;20071;-66
2022/07/14 09:37:39;;;;;;;0.10;0.10;;;32.70;38.10;;;;;;5081847;28;20032;-66
2022/07/14 09:40:10;;;;;;;2.00;0.52;;;32.70;38.10;;;;;;5085308;28;20045;-66
2022/07/14 09:42:52;;;;;;;0.20;0.20;;;32.70;38.00;;;;;;5083619;28;20508;-66
2022/07/14 09:45:21;;;;;;;0.20;0.20;;;32.70;38.00;;;;;;5092238;28;20040;-67
2022/07/14 09:48:02;;;;;;;0.38;0.10;;;32.70;38.60;;;;;;5075095;28;20462;-66
2022/07/14 09:50:48;;;;;;;0.20;0.10;;;32.70;38.00;;;;;;5075934;28;20094;-66
2022/07/14 09:53:19;;;;;;;;;;;32.70;37.90;;;;;;5080541;28;20143;-65
2022/07/14 09:55:53;;;;;;;0.20;0.10;;;32.70;38.00;;;;;;5077825;28;19924;-65
2022/07/14 09:58:21;;;;;;;0.10;0.10;;;32.70;38.10;;;;;;5074377;28;20045;-64
2022/07/14 10:01:00;;;;;;;0.43;0.35;;;32.70;38.00;;;;;;5073178;28;20054;-65
2022/07/14 10:03:30;;;;;;;1.08;0.10;;;32.70;38.00;;;;;;5071497;28;20145;-66
2022/07/14 10:05:58;;;;;;;0.25;0.20;;;32.70;38.00;;;;;;5089104;28;20143;-66
2022/07/14 10:08:28;;;;;;;0.10;0.10;;;32.70;38.00;;;;;;5077801;28;20047;-64
2022/07/14 10:10:56;;;;;;;1.00;0.10;;;32.80;38.00;;;;;;5076674;28;20128;-64
2022/07/14 10:13:24;;;;;;;0.13;0.10;;;32.80;37.90;;;;;;5079680;28;20043;-65
2022/07/14 10:15:52;;;;;;;0.38;0.10;;;32.80;37.90;;;;;;5085487;28;20131;-65
2022/07/14 10:18:21;;;;;;;0.82;0.15;;;32.80;37.80;;;;;;5077500;28;20165;-64
2022/07/14 10:20:52;;;;;;;0.13;0.10;;;32.80;37.80;;;;;;5074916;28;20051;-65
2022/07/14 10:23:20;;;;;;;0.10;0.10;;;32.90;37.80;;;;;;5089007;28;20043;-67
2022/07/14 10:25:47;;;;;;;0.17;0.17;;;32.80;37.70;;;;;;5082300;28;20039;-64
2022/07/14 10:28:15;;;;;;;0.35;0.10;;;32.80;37.80;;;;;;5077013;28;20056;-63
2022/07/14 10:30:51;;;;;;;0.47;0.10;;;32.80;37.70;;;;;;5075924;28;20116;-65
2022/07/14 10:33:27;;;;;;;0.55;0.10;;;32.90;37.70;;;;;;5053512;28;20048;-65
2022/07/14 10:36:03;;;;;;;0.52;0.30;;;32.90;37.70;;;;;;5078181;28;20048;-65
2022/07/14 10:38:49;;;;;;;0.28;0.10;;;32.90;37.70;;;;;;5083199;28;20433;-65
2022/07/14 10:41:42;;;;;;;0.20;0.20;;;32.90;37.60;;;;;;5073574;28;20063;-65
2022/07/14 10:44:16;;;;;;;0.13;0.10;;;32.90;37.50;;;;;;5076357;28;20086;-68
2022/07/14 10:46:45;;;;;;;0.20;0.10;;;32.90;37.60;;;;;;5074422;28;20072;-66
2022/07/14 10:49:13;;;;;;;0.20;0.20;;;33.00;37.60;;;;;;5080678;28;20055;-65
2022/07/14 10:51:47;;;;;;;0.20;0.10;;;32.90;37.60;;;;;;5076861;28;20040;-66
2022/07/14 10:54:16;;;;;;;0.20;0.10;;;33.00;37.60;;;;;;5077448;28;20119;-65
2022/07/14 10:56:45;;;;;;;0.20;0.20;;;32.90;38.10;;;;;;5071482;28;20102;-66
2022/07/14 10:59:32;;;;;;;0.13;0.13;;;33.00;37.50;;;;;;5076008;28;20093;-65
2022/07/14 11:02:27;;;;;;;0.20;0.10;;;33.00;37.40;;;;;;5076381;28;20072;-66
2022/07/14 11:05:02;;;;;;;0.25;0.10;;;33.00;37.40;;;;;;5074164;28;20128;-65
2022/07/14 11:07:51;;;;;;;0.10;0.10;;;33.00;37.40;;;;;;5067820;28;20040;-67
2022/07/14 11:11:08;;;;;;;0.52;0.10;;;33.00;37.30;;;;;;5074478;28;20540;-65
2022/07/14 11:13:35;;;;;;;0.10;0.10;;;33.00;37.30;;;;;;5071582;28;20425;-67
2022/07/14 11:16:04;;;;;;;0.05;0.05;;;33.00;37.30;;;;;;5073042;28;20036;-67
2022/07/14 11:18:34;;;;;;;1.55;0.10;;;33.00;37.30;;;;;;5075975;28;20458;-67
2022/07/14 11:21:06;;;;;;;0.10;0.10;;;33.10;37.30;;;;;;5075280;28;20569;-65
2022/07/14 11:23:36;;;;;;;1.00;0.15;;;33.10;37.30;;;;;;5077227;28;20045;-67
2022/07/14 11:26:05;;;;;;;0.28;0.28;;;33.10;37.20;;;;;;5062445;28;20127;-67
2022/07/14 11:28:44;;;;;;;1.73;0.10;;;33.10;37.20;;;;;;5072759;28;20048;-67
2022/07/14 11:31:13;;;;;;;0.15;0.10;;;33.10;37.20;;;;;;5074984;28;20044;-67
2022/07/14 11:36:24;;;;;;;0.63;0.30;;;33.10;37.10;;;;;;5071081;28;20036;-67
2022/07/14 11:39:25;;;;;;;0.20;0.20;;;33.10;37.10;;;;;;5073981;28;20056;-65
2022/07/14 11:42:03;;;;;;;0.35;0.35;;;33.20;37.10;;;;;;5054651;28;20714;-67
2022/07/14 11:44:47;;;;;;;0.88;0.10;;;33.20;37.10;;;;;;5076265;28;20040;-65
2022/07/14 11:47:19;;;;;;;0.68;0.17;;;33.20;37.00;;;;;;5068330;28;20416;-67
2022/07/14 11:49:59;;;;;;;0.10;0.10;;;33.20;37.00;;;;;;5076747;28;20123;-67
2022/07/14 11:52:30;;;;;;;0.85;0.20;;;33.20;37.00;;;;;;5074977;28;20048;-67
2022/07/14 11:55:00;;;;;;;0.20;0.20;;;33.20;36.90;;;;;;5075442;28;20519;-67
2022/07/14 11:57:28;;;;;;;0.20;0.10;;;33.30;37.00;;;;;;5076820;28;20122;-67
2022/07/14 12:00:03;;;;;;;0.10;0.10;;;33.30;36.90;;;;;;5070432;28;20131;-67
2022/07/14 12:02:31;;;;;;;0.30;0.30;;;33.30;36.80;;;;;;5076711;28;20561;-67
2022/07/14 12:05:00;;;;;;;0.10;0.10;;;33.30;36.80;;;;;;5073551;28;20037;-66
2022/07/14 12:07:43;;;;;;;0.10;0.10;;;33.30;36.80;;;;;;5079712;28;20497;-67
2022/07/14 12:10:12;;;;;;;0.17;0.17;;;33.40;36.80;;;;;;5076080;28;20114;-67
2022/07/14 12:12:41;;;;;;;0.10;0.10;;;33.40;36.80;;;;;;5084277;28;20154;-66
2022/07/14 12:15:09;;;;;;;0.10;0.10;;;33.40;36.70;;;;;;5075157;28;20036;-65
2022/07/14 12:17:47;;;;;;;0.10;0.10;;;33.40;36.60;;;;;;5070625;28;20078;-66
2022/07/14 12:20:14;;;;;;;0.28;0.10;;;33.40;36.50;;;;;;5066707;28;20503;-65
2022/07/14 12:22:44;;;;;;;0.52;0.10;;;33.40;36.50;;;;;;5071012;28;20044;-66
2022/07/14 12:25:27;;;;;;;0.60;0.10;;;33.50;36.50;;;;;;5075038;28;20505;-65
2022/07/14 12:27:55;;;;;;;0.10;0.10;;;33.50;36.40;;;;;;5074864;28;20072;-66
2022/07/14 12:30:22;;;;;;;0.13;0.10;;;33.50;36.40;;;;;;5076319;28;20036;-66
2022/07/14 12:32:53;;;;;;;0.00;0.00;;;33.50;36.30;;;;;;5074147;28;20082;-66
2022/07/14 12:35:22;;;;;;;0.30;0.30;;;33.50;36.30;;;;;;5073993;28;20076;-66
2022/07/14 12:37:49;;;;;;;0.30;0.30;;;33.60;36.30;;;;;;5081083;28;20067;-66
2022/07/14 12:40:17;;;;;;;0.10;0.10;;;33.60;36.20;;;;;;5078779;28;20139;-65
2022/07/14 12:42:46;;;;;;;0.52;0.17;;;33.60;36.20;;;;;;5076638;28;20140;-65
2022/07/14 12:45:13;;;;;;;0.13;0.13;;;33.70;36.20;;;;;;5074836;28;20152;-66
2022/07/14 12:47:50;;;;;;;0.15;0.10;;;33.60;36.00;;;;;;5070707;28;20048;-65
2022/07/14 12:50:22;;;;;;;0.15;0.10;;;33.70;36.00;;;;;;5079424;28;20571;-65
2022/07/14 12:52:52;;;;;;;0.10;0.10;;;33.70;35.90;;;;;;5074251;28;20044;-65
2022/07/14 12:55:38;;;;;;;0.30;0.10;;;33.70;35.90;;;;;;5074069;28;20094;-66
2022/07/14 12:58:09;;;;;;;0.65;0.10;;;33.80;35.80;;;;;;5078015;28;20098;-66
2022/07/14 13:00:37;;;;;;;0.20;0.10;;;33.80;35.80;;;;;;5071352;28;20133;-66
2022/07/14 13:03:13;;;;;;;0.17;0.10;;;33.80;35.70;;;;;;5074239;28;20040;-66
2022/07/14 13:05:45;;;;;;;0.17;0.08;;;33.90;35.70;;;;;;5065683;28;20944;-67
2022/07/14 13:08:34;;;;;;;0.10;0.10;;;33.90;35.60;;;;;;5072183;28;20416;-67
2022/07/14 13:11:03;;;;;;;0.28;0.08;;;33.90;35.50;;;;;;5074551;28;20048;-66
2022/07/14 13:13:34;;;;;;;0.10;0.10;;;33.90;35.50;;;;;;5075008;28;20169;-66
2022/07/14 13:16:18;;;;;;;0.10;0.10;;;34.00;35.50;;;;;;5078602;28;20056;-67